sensor_id;sensor_type;location;lat;lon;timestamp;pressure;altitude;pressure_sealevel;temperature;humidity
7802;BME280;3945;48.952;9.506;2023-04-05T00:01:22;98494.66;;;1.74;60.69
7802;BME280;3945;48.952;9.506;2023-04-05T00:03:49;98496.47;;;1.73;60.59
7802;BME280;3945;48.952;9.506;2023-04-05T00:06:16;98492.03;;;1.74;60.88
7802;BME280;3945;48.952;9.506;2023-04-05T00:08:43;98498.47;;;1.71;60.16
7802;BME280;3945;48.952;9.506;2023-04-05T00:11:13;98489.28;;;1.67;60.94
7802;BME280;3945;48.952;9.506;2023-04-05T00:13:40;98483.41;;;1.65;60.60
7802;BME280;3945;48.952;9.506;2023-04-05T00:16:07;98482.09;;;1.61;60.82
7802;BME280;3945;48.952;9.506;2023-04-05T00:18:34;98474.41;;;1.60;60.98
7802;BME280;3945;48.952;9.506;2023-04-05T00:21:02;98480.63;;;1.58;61.11
7802;BME280;3945;48.952;9.506;2023-04-05T00:23:28;98477.38;;;1.56;61.44
7802;BME280;3945;48.952;9.506;2023-04-05T00:26:03;98470.66;;;1.54;61.62
7802;BME280;3945;48.952;9.506;2023-04-05T00:28:30;98471.31;;;1.56;61.31
7802;BME280;3945;48.952;9.506;2023-04-05T00:30:56;98463.63;;;1.54;60.82
7802;BME280;3945;48.952;9.506;2023-04-05T00:33:24;98461.97;;;1.53;61.83
7802;BME280;3945;48.952;9.506;2023-04-05T00:35:50;98461.50;;;1.50;62.16
7802;BME280;3945;48.952;9.506;2023-04-05T00:38:16;98455.78;;;1.46;62.55
7802;BME280;3945;48.952;9.506;2023-04-05T00:40:42;98454.34;;;1.44;62.54
7802;BME280;3945;48.952;9.506;2023-04-05T00:43:09;98448.75;;;1.39;62.44
7802;BME280;3945;48.952;9.506;2023-04-05T00:45:35;98444.00;;;1.42;62.58
7802;BME280;3945;48.952;9.506;2023-04-05T00:48:02;98443.34;;;1.40;62.06
7802;BME280;3945;48.952;9.506;2023-04-05T00:50:30;98440.06;;;1.38;62.45
7802;BME280;3945;48.952;9.506;2023-04-05T00:52:57;98441.56;;;1.33;62.45
7802;BME280;3945;48.952;9.506;2023-04-05T00:55:23;98430.94;;;1.34;62.71
7802;BME280;3945;48.952;9.506;2023-04-05T00:57:50;98439.63;;;1.35;62.64
7802;BME280;3945;48.952;9.506;2023-04-05T01:00:17;98433.72;;;1.33;63.44
7802;BME280;3945;48.952;9.506;2023-04-05T01:02:47;98431.91;;;1.33;62.72
7802;BME280;3945;48.952;9.506;2023-04-05T01:05:18;98426.84;;;1.32;62.89
7802;BME280;3945;48.952;9.506;2023-04-05T01:07:49;98428.50;;;1.25;64.42
7802;BME280;3945;48.952;9.506;2023-04-05T01:10:16;98434.09;;;1.22;63.74
7802;BME280;3945;48.952;9.506;2023-04-05T01:12:42;98428.34;;;1.18;64.56
7802;BME280;3945;48.952;9.506;2023-04-05T01:15:10;98426.25;;;1.13;63.62
7802;BME280;3945;48.952;9.506;2023-04-05T01:17:36;98424.63;;;1.12;63.42
7802;BME280;3945;48.952;9.506;2023-04-05T01:20:03;98421.84;;;1.14;64.15
7802;BME280;3945;48.952;9.506;2023-04-05T01:22:43;98426.72;;;1.17;64.27
7802;BME280;3945;48.952;9.506;2023-04-05T01:25:31;98418.53;;;1.20;64.70
7802;BME280;3945;48.952;9.506;2023-04-05T01:28:11;98416.59;;;1.14;64.69
7802;BME280;3945;48.952;9.506;2023-04-05T01:30:45;98410.53;;;1.13;65.04
7802;BME280;3945;48.952;9.506;2023-04-05T01:33:16;98408.53;;;1.15;64.86
7802;BME280;3945;48.952;9.506;2023-04-05T01:35:46;98409.34;;;1.16;64.57
7802;BME280;3945;48.952;9.506;2023-04-05T01:38:18;98403.63;;;1.21;64.94
7802;BME280;3945;48.952;9.506;2023-04-05T01:40:49;98407.38;;;1.26;64.64
7802;BME280;3945;48.952;9.506;2023-04-05T01:43:16;98405.56;;;1.27;64.78
7802;BME280;3945;48.952;9.506;2023-04-05T01:45:43;98406.69;;;1.32;65.04
7802;BME280;3945;48.952;9.506;2023-04-05T01:48:11;98406.84;;;1.31;64.71
7802;BME280;3945;48.952;9.506;2023-04-05T01:50:37;98406.03;;;1.30;65.41
7802;BME280;3945;48.952;9.506;2023-04-05T01:53:03;98401.63;;;1.23;65.51
7802;BME280;3945;48.952;9.506;2023-04-05T01:55:30;98395.94;;;1.19;65.75
7802;BME280;3945;48.952;9.506;2023-04-05T01:57:56;98399.69;;;1.16;65.51
7802;BME280;3945;48.952;9.506;2023-04-05T02:00:22;98400.53;;;1.09;66.00
7802;BME280;3945;48.952;9.506;2023-04-05T02:02:49;98406.00;;;0.99;65.82
7802;BME280;3945;48.952;9.506;2023-04-05T02:05:16;98400.25;;;0.96;65.77
7802;BME280;3945;48.952;9.506;2023-04-05T02:07:43;98396.81;;;0.95;65.73
7802;BME280;3945;48.952;9.506;2023-04-05T02:10:09;98386.03;;;0.90;66.42
7802;BME280;3945;48.952;9.506;2023-04-05T02:12:36;98395.38;;;0.85;65.92
7802;BME280;3945;48.952;9.506;2023-04-05T02:15:02;98390.31;;;0.83;65.27
7802;BME280;3945;48.952;9.506;2023-04-05T02:17:28;98394.88;;;0.81;65.98
7802;BME280;3945;48.952;9.506;2023-04-05T02:19:57;98396.88;;;0.79;66.61
7802;BME280;3945;48.952;9.506;2023-04-05T02:22:27;98389.66;;;0.81;65.82
7802;BME280;3945;48.952;9.506;2023-04-05T02:24:54;98390.31;;;0.83;66.43
7802;BME280;3945;48.952;9.506;2023-04-05T02:27:20;98392.41;;;0.88;65.75
7802;BME280;3945;48.952;9.506;2023-04-05T02:29:46;98394.88;;;0.89;66.23
7802;BME280;3945;48.952;9.506;2023-04-05T02:32:13;98396.22;;;0.85;66.91
7802;BME280;3945;48.952;9.506;2023-04-05T02:34:39;98388.34;;;0.85;66.64
7802;BME280;3945;48.952;9.506;2023-04-05T02:37:05;98384.09;;;0.84;66.90
7802;BME280;3945;48.952;9.506;2023-04-05T02:39:33;98394.56;;;0.84;66.90
7802;BME280;3945;48.952;9.506;2023-04-05T02:41:59;98379.84;;;0.83;67.75
7802;BME280;3945;48.952;9.506;2023-04-05T02:44:27;98379.66;;;0.85;67.42
7802;BME280;3945;48.952;9.506;2023-04-05T02:46:53;98369.03;;;0.86;67.18
7802;BME280;3945;48.952;9.506;2023-04-05T02:49:19;98374.59;;;0.83;66.03
7802;BME280;3945;48.952;9.506;2023-04-05T02:51:46;98380.00;;;0.82;66.15
7802;BME280;3945;48.952;9.506;2023-04-05T02:54:12;98375.28;;;0.77;66.47
7802;BME280;3945;48.952;9.506;2023-04-05T02:56:40;98375.94;;;0.71;66.52
7802;BME280;3945;48.952;9.506;2023-04-05T02:59:06;98382.47;;;0.67;67.23
7802;BME280;3945;48.952;9.506;2023-04-05T03:01:33;98376.13;;;0.61;67.50
7802;BME280;3945;48.952;9.506;2023-04-05T03:04:00;98365.34;;;0.56;67.65
7802;BME280;3945;48.952;9.506;2023-04-05T03:06:26;98368.63;;;0.50;67.96
7802;BME280;3945;48.952;9.506;2023-04-05T03:08:53;98372.38;;;0.48;68.15
7802;BME280;3945;48.952;9.506;2023-04-05T03:11:20;98369.44;;;0.43;68.54
7802;BME280;3945;48.952;9.506;2023-04-05T03:13:47;98369.44;;;0.43;68.70
7802;BME280;3945;48.952;9.506;2023-04-05T03:16:14;98373.88;;;0.42;68.78
7802;BME280;3945;48.952;9.506;2023-04-05T03:18:40;98366.31;;;0.39;68.95
7802;BME280;3945;48.952;9.506;2023-04-05T03:21:06;98364.06;;;0.36;69.00
7802;BME280;3945;48.952;9.506;2023-04-05T03:23:36;98365.34;;;0.32;69.06
7802;BME280;3945;48.952;9.506;2023-04-05T03:26:02;98367.31;;;0.30;68.96
7802;BME280;3945;48.952;9.506;2023-04-05T03:28:29;98364.88;;;0.28;68.71
7802;BME280;3945;48.952;9.506;2023-04-05T03:30:57;98374.03;;;0.24;69.14
7802;BME280;3945;48.952;9.506;2023-04-05T03:33:23;98368.13;;;0.22;69.45
7802;BME280;3945;48.952;9.506;2023-04-05T03:35:50;98360.47;;;0.21;69.45
7802;BME280;3945;48.952;9.506;2023-04-05T03:38:16;98362.91;;;0.22;69.37
7802;BME280;3945;48.952;9.506;2023-04-05T03:40:43;98352.63;;;0.21;68.77
7802;BME280;3945;48.952;9.506;2023-04-05T03:43:09;98358.47;;;0.23;68.50
7802;BME280;3945;48.952;9.506;2023-04-05T03:45:35;98362.44;;;0.19;68.19
7802;BME280;3945;48.952;9.506;2023-04-05T03:48:03;98363.41;;;0.18;68.31
7802;BME280;3945;48.952;9.506;2023-04-05T03:50:30;98368.16;;;0.14;68.32
7802;BME280;3945;48.952;9.506;2023-04-05T03:52:57;98362.09;;;0.14;68.66
7802;BME280;3945;48.952;9.506;2023-04-05T03:55:23;98363.91;;;0.13;68.75
7802;BME280;3945;48.952;9.506;2023-04-05T03:57:49;98359.31;;;0.15;69.16
7802;BME280;3945;48.952;9.506;2023-04-05T04:00:16;98361.75;;;0.17;69.15
7802;BME280;3945;48.952;9.506;2023-04-05T04:02:42;98367.66;;;0.19;69.56
7802;BME280;3945;48.952;9.506;2023-04-05T04:05:10;98367.66;;;0.19;70.00
7802;BME280;3945;48.952;9.506;2023-04-05T04:07:37;98368.47;;;0.19;69.95
7802;BME280;3945;48.952;9.506;2023-04-05T04:10:03;98366.69;;;0.20;69.77
7802;BME280;3945;48.952;9.506;2023-04-05T04:12:30;98370.44;;;0.17;69.89
7802;BME280;3945;48.952;9.506;2023-04-05T04:14:56;98366.19;;;0.16;69.63
7802;BME280;3945;48.952;9.506;2023-04-05T04:17:26;98371.91;;;0.20;69.53
7802;BME280;3945;48.952;9.506;2023-04-05T04:19:52;98369.44;;;0.18;69.54
7802;BME280;3945;48.952;9.506;2023-04-05T04:22:20;98365.34;;;0.16;69.43
7802;BME280;3945;48.952;9.506;2023-04-05T04:24:46;98369.97;;;0.14;69.48
7802;BME280;3945;48.952;9.506;2023-04-05T04:27:14;98374.53;;;0.12;69.75
7802;BME280;3945;48.952;9.506;2023-04-05T04:29:41;98372.56;;;0.06;69.87
7802;BME280;3945;48.952;9.506;2023-04-05T04:32:11;98373.03;;;0.01;70.03
7802;BME280;3945;48.952;9.506;2023-04-05T04:34:37;98377.13;;;-0.05;70.40
7802;BME280;3945;48.952;9.506;2023-04-05T04:37:09;98373.69;;;-0.05;70.40
7802;BME280;3945;48.952;9.506;2023-04-05T04:39:43;98372.72;;;-0.04;70.50
7802;BME280;3945;48.952;9.506;2023-04-05T04:42:10;98374.03;;;-0.08;70.71
7802;BME280;3945;48.952;9.506;2023-04-05T04:44:37;98372.25;;;-0.08;70.95
7802;BME280;3945;48.952;9.506;2023-04-05T04:47:03;98364.56;;;-0.09;71.09
7802;BME280;3945;48.952;9.506;2023-04-05T04:49:37;98367.16;;;-0.09;71.10
7802;BME280;3945;48.952;9.506;2023-04-05T04:52:03;98368.28;;;-0.12;71.10
7802;BME280;3945;48.952;9.506;2023-04-05T04:54:30;98367.31;;;-0.11;71.50
7802;BME280;3945;48.952;9.506;2023-04-05T04:56:59;98371.25;;;-0.15;72.01
7802;BME280;3945;48.952;9.506;2023-04-05T04:59:26;98376.47;;;-0.15;71.72
7802;BME280;3945;48.952;9.506;2023-04-05T05:01:52;98377.47;;;-0.16;71.86
7802;BME280;3945;48.952;9.506;2023-04-05T05:04:19;98371.56;;;-0.18;72.21
7802;BME280;3945;48.952;9.506;2023-04-05T05:06:45;98373.34;;;-0.18;72.22
7802;BME280;3945;48.952;9.506;2023-04-05T05:09:12;98373.50;;;-0.20;72.64
7802;BME280;3945;48.952;9.506;2023-04-05T05:11:38;98370.91;;;-0.20;72.41
7802;BME280;3945;48.952;9.506;2023-04-05T05:14:06;98369.09;;;-0.19;72.74
7802;BME280;3945;48.952;9.506;2023-04-05T05:16:32;98381.03;;;-0.17;72.58
7802;BME280;3945;48.952;9.506;2023-04-05T05:18:58;98371.72;;;-0.19;72.65
7802;BME280;3945;48.952;9.506;2023-04-05T05:21:25;98380.53;;;-0.20;72.82
7802;BME280;3945;48.952;9.506;2023-04-05T05:23:52;98382.19;;;-0.19;72.76
7802;BME280;3945;48.952;9.506;2023-04-05T05:26:18;98375.31;;;-0.20;72.76
7802;BME280;3945;48.952;9.506;2023-04-05T05:28:45;98378.75;;;-0.20;72.99
7802;BME280;3945;48.952;9.506;2023-04-05T05:31:15;98384.78;;;-0.19;72.83
7802;BME280;3945;48.952;9.506;2023-04-05T05:33:42;98370.41;;;-0.23;73.25
7802;BME280;3945;48.952;9.506;2023-04-05T05:36:11;98385.94;;;-0.22;73.12
7802;BME280;3945;48.952;9.506;2023-04-05T05:38:38;98378.09;;;-0.22;73.11
7802;BME280;3945;48.952;9.506;2023-04-05T05:41:04;98378.25;;;-0.23;72.71
7802;BME280;3945;48.952;9.506;2023-04-05T05:43:30;98377.75;;;-0.27;72.82
7802;BME280;3945;48.952;9.506;2023-04-05T05:45:59;98378.09;;;-0.22;73.11
7802;BME280;3945;48.952;9.506;2023-04-05T05:48:26;98383.16;;;-0.20;72.94
7802;BME280;3945;48.952;9.506;2023-04-05T05:50:53;98382.81;;;-0.25;73.38
7802;BME280;3945;48.952;9.506;2023-04-05T05:53:20;98376.28;;;-0.29;73.41
7802;BME280;3945;48.952;9.506;2023-04-05T05:55:46;98389.53;;;-0.31;73.63
7802;BME280;3945;48.952;9.506;2023-04-05T05:58:12;98385.44;;;-0.25;73.39
7802;BME280;3945;48.952;9.506;2023-04-05T06:00:39;98384.31;;;-0.23;73.97
7802;BME280;3945;48.952;9.506;2023-04-05T06:03:06;98383.31;;;-0.14;73.81
7802;BME280;3945;48.952;9.506;2023-04-05T06:05:35;98387.09;;;-0.08;74.12
7802;BME280;3945;48.952;9.506;2023-04-05T06:08:01;98386.78;;;0.03;73.88
7802;BME280;3945;48.952;9.506;2023-04-05T06:10:28;98382.53;;;0.18;74.38
7802;BME280;3945;48.952;9.506;2023-04-05T06:12:55;98390.03;;;0.37;74.28
7802;BME280;3945;48.952;9.506;2023-04-05T06:15:21;98388.53;;;0.59;74.57
7802;BME280;3945;48.952;9.506;2023-04-05T06:17:47;98381.31;;;0.86;73.83
7802;BME280;3945;48.952;9.506;2023-04-05T06:20:14;98392.66;;;1.17;72.25
7802;BME280;3945;48.952;9.506;2023-04-05T06:22:41;98390.88;;;1.48;71.21
7802;BME280;3945;48.952;9.506;2023-04-05T06:25:08;98388.25;;;1.79;70.62
7802;BME280;3945;48.952;9.506;2023-04-05T06:27:36;98388.31;;;2.17;69.98
7802;BME280;3945;48.952;9.506;2023-04-05T06:30:03;98381.53;;;2.60;67.21
7802;BME280;3945;48.952;9.506;2023-04-05T06:32:29;98381.66;;;2.96;67.03
7802;BME280;3945;48.952;9.506;2023-04-05T06:34:56;98379.22;;;3.38;64.09
7802;BME280;3945;48.952;9.506;2023-04-05T06:37:22;98377.66;;;3.80;61.58
7802;BME280;3945;48.952;9.506;2023-04-05T06:39:50;98380.66;;;4.19;61.42
7802;BME280;3945;48.952;9.506;2023-04-05T06:42:16;98384.66;;;4.58;60.29
7802;BME280;3945;48.952;9.506;2023-04-05T06:44:43;98381.84;;;4.94;58.19
7802;BME280;3945;48.952;9.506;2023-04-05T06:47:09;98382.28;;;5.32;56.28
7802;BME280;3945;48.952;9.506;2023-04-05T06:49:36;98386.88;;;5.64;54.31
7802;BME280;3945;48.952;9.506;2023-04-05T06:52:02;98376.81;;;5.87;53.46
7802;BME280;3945;48.952;9.506;2023-04-05T06:54:30;98381.13;;;6.15;52.22
7802;BME280;3945;48.952;9.506;2023-04-05T06:56:57;98378.31;;;6.43;51.88
7802;BME280;3945;48.952;9.506;2023-04-05T06:59:24;98379.13;;;6.76;51.61
7802;BME280;3945;48.952;9.506;2023-04-05T07:01:50;98368.69;;;7.07;50.68
7802;BME280;3945;48.952;9.506;2023-04-05T07:04:16;98367.16;;;7.38;50.18
7802;BME280;3945;48.952;9.506;2023-04-05T07:06:42;98371.13;;;7.67;49.84
7802;BME280;3945;48.952;9.506;2023-04-05T07:09:09;98379.38;;;7.90;49.66
7802;BME280;3945;48.952;9.506;2023-04-05T07:11:35;98369.09;;;8.00;50.30
7802;BME280;3945;48.952;9.506;2023-04-05T07:14:05;98376.56;;;8.16;49.91
7802;BME280;3945;48.952;9.506;2023-04-05T07:16:31;98376.63;;;8.41;49.46
7802;BME280;3945;48.952;9.506;2023-04-05T07:18:57;98378.50;;;8.59;47.59
7802;BME280;3945;48.952;9.506;2023-04-05T07:21:24;98377.50;;;8.85;46.85
7802;BME280;3945;48.952;9.506;2023-04-05T07:23:51;98375.22;;;9.07;47.65
7802;BME280;3945;48.952;9.506;2023-04-05T07:26:19;98367.31;;;9.36;46.99
7802;BME280;3945;48.952;9.506;2023-04-05T07:28:46;98380.03;;;9.53;47.22
7802;BME280;3945;48.952;9.506;2023-04-05T07:31:14;98364.28;;;9.69;46.56
7802;BME280;3945;48.952;9.506;2023-04-05T07:33:40;98372.69;;;9.85;44.71
7802;BME280;3945;48.952;9.506;2023-04-05T07:36:07;98375.59;;;9.95;44.69
7802;BME280;3945;48.952;9.506;2023-04-05T07:38:34;98382.72;;;10.12;46.47
7802;BME280;3945;48.952;9.506;2023-04-05T07:41:00;98380.81;;;10.20;47.12
7802;BME280;3945;48.952;9.506;2023-04-05T07:43:26;98376.38;;;10.43;45.00
7802;BME280;3945;48.952;9.506;2023-04-05T07:45:59;98379.63;;;10.57;45.24
7802;BME280;3945;48.952;9.506;2023-04-05T07:48:27;98377.22;;;10.79;45.38
7802;BME280;3945;48.952;9.506;2023-04-05T07:50:53;98373.75;;;11.02;43.45
7802;BME280;3945;48.952;9.506;2023-04-05T07:53:20;98377.66;;;11.11;44.05
7802;BME280;3945;48.952;9.506;2023-04-05T07:55:46;98370.91;;;11.31;43.30
7802;BME280;3945;48.952;9.506;2023-04-05T07:58:12;98371.59;;;11.50;43.72
7802;BME280;3945;48.952;9.506;2023-04-05T08:00:40;98372.13;;;11.64;42.35
7802;BME280;3945;48.952;9.506;2023-04-05T08:03:06;98372.59;;;11.61;41.73
7802;BME280;3945;48.952;9.506;2023-04-05T08:05:34;98373.16;;;11.74;41.24
7802;BME280;3945;48.952;9.506;2023-04-05T08:08:00;98369.91;;;11.84;43.25
7802;BME280;3945;48.952;9.506;2023-04-05T08:10:26;98364.59;;;11.72;42.72
7802;BME280;3945;48.952;9.506;2023-04-05T08:12:53;98369.56;;;11.81;43.65
7802;BME280;3945;48.952;9.506;2023-04-05T08:15:19;98372.13;;;12.04;42.54
7802;BME280;3945;48.952;9.506;2023-04-05T08:17:46;98367.50;;;12.28;38.54
7802;BME280;3945;48.952;9.506;2023-04-05T08:20:12;98365.00;;;12.55;37.69
7802;BME280;3945;48.952;9.506;2023-04-05T08:22:40;98359.09;;;12.69;39.84
7802;BME280;3945;48.952;9.506;2023-04-05T08:25:07;98352.88;;;12.80;37.30
7802;BME280;3945;48.952;9.506;2023-04-05T08:27:33;98348.88;;;13.00;39.10
7802;BME280;3945;48.952;9.506;2023-04-05T08:29:59;98351.94;;;13.08;39.24
7802;BME280;3945;48.952;9.506;2023-04-05T08:32:26;98358.91;;;13.09;34.70
7802;BME280;3945;48.952;9.506;2023-04-05T08:34:52;98354.56;;;12.86;33.71
7802;BME280;3945;48.952;9.506;2023-04-05T08:37:18;98350.38;;;12.74;36.96
7802;BME280;3945;48.952;9.506;2023-04-05T08:39:46;98352.63;;;12.82;36.79
7802;BME280;3945;48.952;9.506;2023-04-05T08:42:14;98348.66;;;12.84;36.51
7802;BME280;3945;48.952;9.506;2023-04-05T08:44:41;98363.63;;;12.69;34.73
7802;BME280;3945;48.952;9.506;2023-04-05T08:47:09;98354.91;;;12.73;33.30
7802;BME280;3945;48.952;9.506;2023-04-05T08:49:41;98350.91;;;12.76;35.27
7802;BME280;3945;48.952;9.506;2023-04-05T08:52:07;98352.75;;;12.92;35.90
7802;BME280;3945;48.952;9.506;2023-04-05T08:54:34;98357.59;;;13.12;35.64
7802;BME280;3945;48.952;9.506;2023-04-05T08:57:02;98352.03;;;13.13;34.78
7802;BME280;3945;48.952;9.506;2023-04-05T08:59:30;98359.81;;;13.15;35.44
7802;BME280;3945;48.952;9.506;2023-04-05T09:01:59;98352.03;;;13.13;35.25
7802;BME280;3945;48.952;9.506;2023-04-05T09:04:28;98357.19;;;13.20;34.19
7802;BME280;3945;48.952;9.506;2023-04-05T09:06:57;98354.44;;;12.98;34.26
7802;BME280;3945;48.952;9.506;2023-04-05T09:09:23;98353.91;;;12.79;32.93
7802;BME280;3945;48.952;9.506;2023-04-05T09:11:50;98356.03;;;12.77;33.80
7802;BME280;3945;48.952;9.506;2023-04-05T09:14:18;98358.09;;;12.25;31.38
7802;BME280;3945;48.952;9.506;2023-04-05T09:16:45;98364.63;;;12.01;33.15
7802;BME280;3945;48.952;9.506;2023-04-05T09:19:12;98358.03;;;12.20;35.46
7802;BME280;3945;48.952;9.506;2023-04-05T09:21:57;98357.16;;;12.48;33.68
7802;BME280;3945;48.952;9.506;2023-04-05T09:24:31;98353.13;;;12.79;33.49
7802;BME280;3945;48.952;9.506;2023-04-05T09:27:05;98349.34;;;13.13;34.00
7802;BME280;3945;48.952;9.506;2023-04-05T09:29:32;98350.34;;;13.46;34.58
7802;BME280;3945;48.952;9.506;2023-04-05T09:31:59;98351.81;;;13.37;30.70
7802;BME280;3945;48.952;9.506;2023-04-05T09:34:26;98352.88;;;13.57;32.75
7802;BME280;3945;48.952;9.506;2023-04-05T09:36:52;98346.84;;;13.67;32.39
7802;BME280;3945;48.952;9.506;2023-04-05T09:39:19;98350.31;;;13.67;33.39
7802;BME280;3945;48.952;9.506;2023-04-05T09:42:02;98350.81;;;13.43;32.35
7802;BME280;3945;48.952;9.506;2023-04-05T09:44:34;98351.31;;;13.40;32.60
7802;BME280;3945;48.952;9.506;2023-04-05T09:47:16;98347.47;;;13.52;31.73
7802;BME280;3945;48.952;9.506;2023-04-05T09:49:42;98350.34;;;13.46;30.97
7802;BME280;3945;48.952;9.506;2023-04-05T09:52:16;98350.53;;;13.39;30.82
7802;BME280;3945;48.952;9.506;2023-04-05T09:54:42;98348.19;;;13.48;31.46
7802;BME280;3945;48.952;9.506;2023-04-05T09:57:09;98344.66;;;13.64;31.76
7802;BME280;3945;48.952;9.506;2023-04-05T09:59:37;98340.13;;;13.91;33.31
7802;BME280;3945;48.952;9.506;2023-04-05T10:02:04;98328.06;;;14.16;32.85
7802;BME280;3945;48.952;9.506;2023-04-05T10:04:37;98326.50;;;14.20;32.06
7802;BME280;3945;48.952;9.506;2023-04-05T10:07:03;98326.03;;;14.28;32.42
7802;BME280;3945;48.952;9.506;2023-04-05T10:09:29;98324.34;;;14.17;30.68
7802;BME280;3945;48.952;9.506;2023-04-05T10:11:56;98323.53;;;14.16;32.16
7802;BME280;3945;48.952;9.506;2023-04-05T10:14:23;98322.25;;;14.24;31.56
7802;BME280;3945;48.952;9.506;2023-04-05T10:16:52;98325.81;;;14.02;31.29
7802;BME280;3945;48.952;9.506;2023-04-05T10:19:20;98320.31;;;13.87;32.49
7802;BME280;3945;48.952;9.506;2023-04-05T10:21:50;98324.31;;;13.41;31.15
7802;BME280;3945;48.952;9.506;2023-04-05T10:24:21;98328.56;;;13.59;34.21
7802;BME280;3945;48.952;9.506;2023-04-05T10:26:54;98323.78;;;13.88;31.80
7802;BME280;3945;48.952;9.506;2023-04-05T10:29:29;98315.19;;;14.13;32.45
7802;BME280;3945;48.952;9.506;2023-04-05T10:32:01;98317.59;;;14.41;32.89
7802;BME280;3945;48.952;9.506;2023-04-05T10:34:30;98308.16;;;14.65;32.05
7802;BME280;3945;48.952;9.506;2023-04-05T10:37:00;98302.59;;;14.77;31.14
7802;BME280;3945;48.952;9.506;2023-04-05T10:39:27;98310.22;;;14.90;32.11
7802;BME280;3945;48.952;9.506;2023-04-05T10:41:59;98308.97;;;15.08;33.14
7802;BME280;3945;48.952;9.506;2023-04-05T10:44:26;98302.63;;;15.24;32.00
7802;BME280;3945;48.952;9.506;2023-04-05T10:46:53;98312.22;;;15.20;31.52
7802;BME280;3945;48.952;9.506;2023-04-05T10:49:26;98302.38;;;15.31;30.85
7802;BME280;3945;48.952;9.506;2023-04-05T10:51:54;98306.16;;;15.40;31.66
7802;BME280;3945;48.952;9.506;2023-04-05T10:54:21;98299.75;;;15.51;30.94
7802;BME280;3945;48.952;9.506;2023-04-05T10:56:49;98304.56;;;15.49;31.88
7802;BME280;3945;48.952;9.506;2023-04-05T10:59:15;98303.06;;;15.68;32.57
7802;BME280;3945;48.952;9.506;2023-04-05T11:01:42;98301.22;;;15.79;30.10
7802;BME280;3945;48.952;9.506;2023-04-05T11:04:10;98293.72;;;15.81;29.79
7802;BME280;3945;48.952;9.506;2023-04-05T11:06:39;98293.16;;;15.69;30.48
7802;BME280;3945;48.952;9.506;2023-04-05T11:09:08;98302.28;;;15.68;31.53
7802;BME280;3945;48.952;9.506;2023-04-05T11:11:37;98290.69;;;15.57;29.59
7802;BME280;3945;48.952;9.506;2023-04-05T11:14:15;98285.78;;;15.34;28.23
7802;BME280;3945;48.952;9.506;2023-04-05T11:16:44;98288.16;;;15.35;31.02
7802;BME280;3945;48.952;9.506;2023-04-05T11:19:11;98277.56;;;14.98;28.81
7802;BME280;3945;48.952;9.506;2023-04-05T11:21:39;98274.66;;;15.10;30.76
7802;BME280;3945;48.952;9.506;2023-04-05T11:24:05;98271.00;;;15.31;31.17
7802;BME280;3945;48.952;9.506;2023-04-05T11:26:32;98263.75;;;15.32;31.01
7802;BME280;3945;48.952;9.506;2023-04-05T11:28:59;98261.59;;;15.29;29.14
7802;BME280;3945;48.952;9.506;2023-04-05T11:31:25;98261.03;;;15.21;32.34
7802;BME280;3945;48.952;9.506;2023-04-05T11:33:52;98261.03;;;15.16;32.16
7802;BME280;3945;48.952;9.506;2023-04-05T11:36:35;98261.25;;;15.05;31.76
7802;BME280;3945;48.952;9.506;2023-04-05T11:39:22;98260.50;;;15.19;31.73
7802;BME280;3945;48.952;9.506;2023-04-05T11:41:52;98263.81;;;15.47;30.68
7802;BME280;3945;48.952;9.506;2023-04-05T11:44:18;98255.03;;;15.72;30.36
7802;BME280;3945;48.952;9.506;2023-04-05T11:46:45;98254.78;;;15.73;31.07
7802;BME280;3945;48.952;9.506;2023-04-05T11:49:12;98259.84;;;15.54;29.66
7802;BME280;3945;48.952;9.506;2023-04-05T11:51:39;98257.75;;;15.82;33.20
7802;BME280;3945;48.952;9.506;2023-04-05T11:54:06;98253.84;;;15.37;27.83
7802;BME280;3945;48.952;9.506;2023-04-05T11:56:34;98256.38;;;15.59;29.58
7802;BME280;3945;48.952;9.506;2023-04-05T11:59:01;98255.72;;;15.37;28.03
7802;BME280;3945;48.952;9.506;2023-04-05T12:01:28;98259.47;;;15.31;28.24
7802;BME280;3945;48.952;9.506;2023-04-05T12:03:54;98249.59;;;15.51;31.09
7802;BME280;3945;48.952;9.506;2023-04-05T12:06:21;98247.19;;;15.45;28.98
7802;BME280;3945;48.952;9.506;2023-04-05T12:08:48;98237.81;;;15.47;29.43
7802;BME280;3945;48.952;9.506;2023-04-05T12:11:15;98242.94;;;15.54;28.60
7802;BME280;3945;48.952;9.506;2023-04-05T12:13:44;98244.78;;;15.48;28.59
7802;BME280;3945;48.952;9.506;2023-04-05T12:16:10;98226.66;;;15.08;29.96
7802;BME280;3945;48.952;9.506;2023-04-05T12:18:36;98237.19;;;15.25;30.28
7802;BME280;3945;48.952;9.506;2023-04-05T12:21:04;98229.97;;;15.31;31.05
7802;BME280;3945;48.952;9.506;2023-04-05T12:23:30;98232.47;;;15.57;31.33
7802;BME280;3945;48.952;9.506;2023-04-05T12:25:57;98228.75;;;15.79;30.69
7802;BME280;3945;48.952;9.506;2023-04-05T12:28:23;98224.72;;;15.66;29.09
7802;BME280;3945;48.952;9.506;2023-04-05T12:30:52;98221.78;;;15.63;28.06
7802;BME280;3945;48.952;9.506;2023-04-05T12:33:28;98228.41;;;15.50;30.76
7802;BME280;3945;48.952;9.506;2023-04-05T12:35:54;98220.44;;;15.70;31.16
7802;BME280;3945;48.952;9.506;2023-04-05T12:38:23;98217.75;;;16.00;31.51
7802;BME280;3945;48.952;9.506;2023-04-05T12:40:50;98215.91;;;16.26;29.63
7802;BME280;3945;48.952;9.506;2023-04-05T12:43:17;98210.78;;;16.40;29.44
7802;BME280;3945;48.952;9.506;2023-04-05T12:45:44;98207.78;;;16.52;30.54
7802;BME280;3945;48.952;9.506;2023-04-05T12:48:12;98205.38;;;16.55;31.02
7802;BME280;3945;48.952;9.506;2023-04-05T12:50:43;98194.09;;;16.63;30.05
7802;BME280;3945;48.952;9.506;2023-04-05T12:53:14;98184.16;;;16.44;29.01
7802;BME280;3945;48.952;9.506;2023-04-05T12:55:42;98191.97;;;16.15;30.14
7802;BME280;3945;48.952;9.506;2023-04-05T12:58:09;98184.75;;;16.15;30.37
7802;BME280;3945;48.952;9.506;2023-04-05T13:00:37;98179.38;;;16.10;31.13
7802;BME280;3945;48.952;9.506;2023-04-05T13:03:03;98180.19;;;16.26;30.20
7802;BME280;3945;48.952;9.506;2023-04-05T13:05:31;98172.91;;;16.42;30.02
7802;BME280;3945;48.952;9.506;2023-04-05T13:07:57;98177.50;;;16.16;29.02
7802;BME280;3945;48.952;9.506;2023-04-05T13:10:24;98173.19;;;16.10;29.38
7802;BME280;3945;48.952;9.506;2023-04-05T13:12:50;98176.69;;;15.95;29.49
7802;BME280;3945;48.952;9.506;2023-04-05T13:15:17;98178.84;;;15.83;27.96
7802;BME280;3945;48.952;9.506;2023-04-05T13:17:43;98170.00;;;15.67;30.29
7802;BME280;3945;48.952;9.506;2023-04-05T13:20:13;98171.88;;;15.67;30.28
7802;BME280;3945;48.952;9.506;2023-04-05T13:22:41;98177.50;;;15.85;29.62
7802;BME280;3945;48.952;9.506;2023-04-05T13:25:08;98169.97;;;15.92;29.24
7802;BME280;3945;48.952;9.506;2023-04-05T13:27:34;98170.28;;;15.91;29.00
7802;BME280;3945;48.952;9.506;2023-04-05T13:30:01;98161.38;;;16.00;29.91